createdAt,value
2018-12-12T00:00:11.526Z,96
2018-12-12T00:01:10.384Z,96
2018-12-12T00:02:10.819Z,96
2018-12-12T00:03:10.434Z,96
2018-12-12T00:04:10.671Z,96
2018-12-12T00:05:10.655Z,96
2018-12-12T00:06:10.722Z,96
2018-12-12T00:07:10.976Z,96
2018-12-12T00:08:10.549Z,96
2018-12-12T00:09:10.404Z,96
2018-12-12T00:10:10.895Z,96
2018-12-12T00:11:10.449Z,96
2018-12-12T00:12:10.844Z,96
2018-12-12T00:13:10.688Z,96
2018-12-12T00:14:10.408Z,96
2018-12-12T00:15:10.467Z,96
2018-12-12T00:16:10.639Z,96
2018-12-12T00:17:10.617Z,96
2018-12-12T00:18:10.403Z,96
2018-12-12T00:19:10.426Z,96
2018-12-12T00:20:10.682Z,96
2018-12-12T00:21:12.914Z,96
2018-12-12T00:22:12.012Z,96
2018-12-12T00:23:10.563Z,96
2018-12-12T00:24:10.684Z,96
2018-12-12T00:25:10.894Z,96
2018-12-12T00:26:10.877Z,96
2018-12-12T00:27:10.688Z,96
2018-12-12T00:28:10.464Z,96
2018-12-12T00:29:10.743Z,96
2018-12-12T00:30:10.927Z,96
2018-12-12T00:31:11.141Z,96
2018-12-12T00:32:10.699Z,96
2018-12-12T00:33:10.951Z,96
2018-12-12T00:34:10.478Z,96
2018-12-12T00:35:10.479Z,96
2018-12-12T00:36:10.484Z,96
2018-12-12T00:37:10.915Z,96
2018-12-12T00:38:10.631Z,96
2018-12-12T00:39:10.698Z,96
2018-12-12T00:40:10.951Z,96
2018-12-12T00:41:10.938Z,96
2018-12-12T00:42:10.743Z,96
2018-12-12T00:43:10.470Z,96
2018-12-12T00:44:10.486Z,96
2018-12-12T00:45:10.983Z,96
2018-12-12T00:46:10.499Z,96
2018-12-12T00:47:10.706Z,96
2018-12-12T00:48:10.513Z,96
2018-12-12T00:49:11.032Z,96
2018-12-12T00:50:10.492Z,96
2018-12-12T00:51:10.736Z,96
2018-12-12T00:52:10.937Z,96
2018-12-12T00:53:10.816Z,96
2018-12-12T00:54:10.501Z,96
2018-12-12T00:55:10.706Z,96
2018-12-12T00:56:10.555Z,96
2018-12-12T00:57:11.186Z,96
2018-12-12T00:58:11.245Z,95
2018-12-12T00:59:10.749Z,95
2018-12-12T01:00:10.730Z,96
2018-12-12T01:01:10.577Z,96
2018-12-12T01:02:10.980Z,96
2018-12-12T01:03:10.716Z,96
2018-12-12T01:04:10.516Z,96
2018-12-12T01:05:10.597Z,96
2018-12-12T01:06:11.022Z,96
2018-12-12T01:07:10.610Z,96
2018-12-12T01:08:10.843Z,96
2018-12-12T01:09:10.986Z,96
2018-12-12T01:10:10.515Z,96
2018-12-12T01:11:10.758Z,96
2018-12-12T01:12:10.529Z,96
2018-12-12T01:13:10.529Z,95
2018-12-12T01:14:10.978Z,95
2018-12-12T01:15:10.702Z,95
2018-12-12T01:16:11.013Z,95
2018-12-12T01:17:10.577Z,95
2018-12-12T01:18:11.007Z,95
2018-12-12T01:19:10.789Z,95
2018-12-12T01:20:10.722Z,95
2018-12-12T01:21:10.781Z,95
2018-12-12T01:22:10.995Z,95
2018-12-12T01:23:11.064Z,95
2018-12-12T01:24:10.776Z,95
2018-12-12T01:25:10.815Z,95
2018-12-12T01:26:10.604Z,95
2018-12-12T01:27:10.583Z,95
2018-12-12T01:28:10.608Z,95
2018-12-12T01:29:10.584Z,95
2018-12-12T01:30:10.671Z,95
2018-12-12T01:31:10.831Z,95
2018-12-12T01:32:10.566Z,95
2018-12-12T01:33:10.593Z,95
2018-12-12T01:34:11.078Z,95
2018-12-12T01:35:11.047Z,95
2018-12-12T01:36:10.788Z,95
2018-12-12T01:37:10.998Z,95
2018-12-12T01:38:10.959Z,95
2018-12-12T01:39:10.573Z,95
2018-12-12T01:40:10.804Z,95
2018-12-12T01:41:11.056Z,95
2018-12-12T01:42:11.000Z,95
2018-12-12T01:43:10.651Z,95
2018-12-12T01:44:10.870Z,95
2018-12-12T01:45:10.684Z,95
2018-12-12T01:46:12.003Z,95
2018-12-12T01:47:10.657Z,95
2018-12-12T01:48:10.806Z,95
2018-12-12T01:49:10.780Z,95
2018-12-12T01:50:11.073Z,95
2018-12-12T01:51:10.643Z,95
2018-12-12T01:52:11.050Z,95
2018-12-12T01:53:10.807Z,95
2018-12-12T01:54:10.589Z,95
2018-12-12T01:55:10.675Z,95
2018-12-12T01:56:10.638Z,95
2018-12-12T01:57:11.040Z,95
2018-12-12T01:58:10.647Z,95
2018-12-12T01:59:10.623Z,96
2018-12-12T02:00:10.634Z,96
2018-12-12T02:01:10.601Z,95
2018-12-12T02:02:11.057Z,95
2018-12-12T02:03:10.635Z,95
2018-12-12T02:04:10.621Z,95
2018-12-12T02:05:10.611Z,95
2018-12-12T02:06:11.105Z,95
2018-12-12T02:07:10.636Z,95
2018-12-12T02:08:10.770Z,95
2018-12-12T02:09:10.642Z,95
2018-12-12T02:10:11.130Z,95
2018-12-12T02:11:11.056Z,95
2018-12-12T02:12:10.687Z,95
2018-12-12T02:13:11.106Z,95
2018-12-12T02:14:10.777Z,95
2018-12-12T02:15:11.064Z,95
2018-12-12T02:16:11.545Z,95
2018-12-12T02:17:11.123Z,95
2018-12-12T02:18:11.129Z,95
2018-12-12T02:19:10.686Z,95
2018-12-12T02:20:11.152Z,95
2018-12-12T02:21:10.705Z,95
2018-12-12T02:22:11.166Z,96
2018-12-12T02:23:11.173Z,96
2018-12-12T02:24:10.705Z,95
2018-12-12T02:25:11.112Z,95
2018-12-12T02:26:10.723Z,95
2018-12-12T02:27:11.162Z,95
2018-12-12T02:28:11.184Z,95
2018-12-12T02:29:11.170Z,95
2018-12-12T02:30:10.686Z,95
2018-12-12T02:31:11.167Z,95
2018-12-12T02:32:11.256Z,95
2018-12-12T02:33:11.217Z,95
2018-12-12T02:34:10.668Z,95
2018-12-12T02:35:10.698Z,95
2018-12-12T02:36:10.698Z,95
2018-12-12T02:37:10.721Z,95
2018-12-12T02:38:10.788Z,95
2018-12-12T02:39:10.704Z,95
2018-12-12T02:40:10.683Z,95
2018-12-12T02:41:10.742Z,95
2018-12-12T02:42:11.173Z,95
2018-12-12T02:43:11.179Z,95
2018-12-12T02:44:11.140Z,95
2018-12-12T02:45:11.157Z,95
2018-12-12T02:46:11.187Z,95
2018-12-12T02:47:10.722Z,95
2018-12-12T02:48:11.147Z,95
2018-12-12T02:49:11.741Z,95
2018-12-12T02:50:10.706Z,95
2018-12-12T02:51:11.178Z,95
2018-12-12T02:52:11.215Z,95
2018-12-12T02:53:10.764Z,95
2018-12-12T02:54:10.708Z,95
2018-12-12T02:55:11.171Z,95
2018-12-12T02:56:10.739Z,95
2018-12-12T02:57:11.176Z,95
2018-12-12T02:58:11.148Z,95
2018-12-12T02:59:11.377Z,95
2018-12-12T03:00:10.840Z,95
2018-12-12T03:01:10.795Z,95
2018-12-12T03:02:11.262Z,95
2018-12-12T03:03:10.739Z,95
2018-12-12T03:04:10.788Z,95
2018-12-12T03:05:10.777Z,95
2018-12-12T03:06:11.202Z,95
2018-12-12T03:07:11.184Z,95
2018-12-12T03:08:10.861Z,95
2018-12-12T03:09:10.720Z,95
2018-12-12T03:10:10.731Z,95
2018-12-12T03:11:11.282Z,95
2018-12-12T03:12:11.216Z,95
2018-12-12T03:13:10.776Z,95
2018-12-12T03:14:10.753Z,95
2018-12-12T03:15:11.217Z,95
2018-12-12T03:16:10.764Z,95
2018-12-12T03:17:10.996Z,95
2018-12-12T03:18:11.390Z,95
2018-12-12T03:19:10.812Z,95
2018-12-12T03:20:11.195Z,95
2018-12-12T03:21:10.811Z,95
2018-12-12T03:22:11.201Z,95
2018-12-12T03:23:11.229Z,95
2018-12-12T03:24:10.791Z,95
2018-12-12T03:25:11.206Z,95
2018-12-12T03:26:11.180Z,95
2018-12-12T03:27:10.742Z,95
2018-12-12T03:28:11.224Z,95
2018-12-12T03:29:10.958Z,95
2018-12-12T03:30:10.980Z,95
2018-12-12T03:31:11.074Z,95
2018-12-12T03:32:11.042Z,95
2018-12-12T03:33:11.041Z,95
2018-12-12T03:34:10.977Z,95
2018-12-12T03:35:10.775Z,95
2018-12-12T03:36:20.916Z,95
2018-12-12T03:37:10.740Z,95
2018-12-12T03:38:11.142Z,95
2018-12-12T03:39:10.784Z,95
2018-12-12T03:40:11.018Z,96
2018-12-12T03:41:11.030Z,96
2018-12-12T03:42:10.793Z,96
2018-12-12T03:43:11.047Z,96
2018-12-12T03:44:11.002Z,96
2018-12-12T03:45:10.891Z,96
2018-12-12T03:46:11.268Z,96
2018-12-12T03:47:10.869Z,96
2018-12-12T03:48:11.296Z,96
2018-12-12T03:49:10.790Z,96
2018-12-12T03:50:11.269Z,96
2018-12-12T03:51:10.857Z,96
2018-12-12T03:52:10.815Z,96
2018-12-12T03:53:10.932Z,96
2018-12-12T03:54:10.792Z,96
2018-12-12T03:55:11.028Z,96
2018-12-12T03:56:11.271Z,96
2018-12-12T03:57:11.074Z,96
2018-12-12T03:58:11.281Z,96
2018-12-12T03:59:10.870Z,96
2018-12-12T04:00:10.843Z,96
2018-12-12T04:01:11.302Z,96
2018-12-12T04:02:10.959Z,96
2018-12-12T04:03:11.003Z,96
2018-12-12T04:04:11.092Z,96
2018-12-12T04:05:10.834Z,96
2018-12-12T04:06:10.847Z,96
2018-12-12T04:07:10.910Z,96
2018-12-12T04:08:11.203Z,96
2018-12-12T04:09:11.247Z,96
2018-12-12T04:10:11.383Z,96
2018-12-12T04:11:11.024Z,96
2018-12-12T04:12:11.059Z,96
2018-12-12T04:13:11.095Z,96
2018-12-12T04:14:11.420Z,96
2018-12-12T04:15:11.269Z,96
2018-12-12T04:16:11.063Z,96
2018-12-12T04:17:12.030Z,96
2018-12-12T04:18:11.408Z,96
2018-12-12T04:19:11.094Z,96
2018-12-12T04:20:11.345Z,96
2018-12-12T04:21:11.338Z,96
2018-12-12T04:22:11.112Z,96
2018-12-12T04:23:11.195Z,96
2018-12-12T04:24:11.328Z,96
2018-12-12T04:25:10.924Z,96
2018-12-12T04:26:11.348Z,96
2018-12-12T04:27:11.083Z,96
2018-12-12T04:28:11.656Z,96
2018-12-12T04:29:10.877Z,96
2018-12-12T04:30:10.990Z,96
2018-12-12T04:31:10.915Z,96
2018-12-12T04:32:10.898Z,96
2018-12-12T04:33:11.435Z,96
2018-12-12T04:34:10.957Z,96
2018-12-12T04:35:10.951Z,96
2018-12-12T04:36:11.062Z,96
2018-12-12T04:37:11.406Z,96
2018-12-12T04:38:11.119Z,96
2018-12-12T04:39:10.952Z,96
2018-12-12T04:40:11.393Z,96
2018-12-12T04:41:10.973Z,96
2018-12-12T04:42:10.957Z,96
2018-12-12T04:43:11.364Z,96
2018-12-12T04:44:11.416Z,96
2018-12-12T04:45:11.358Z,96
2018-12-12T04:46:11.507Z,96
2018-12-12T04:47:11.348Z,96
2018-12-12T04:48:12.129Z,96
2018-12-12T04:49:11.378Z,96
2018-12-12T04:50:11.202Z,96
2018-12-12T04:51:10.984Z,96
2018-12-12T04:52:10.962Z,96
2018-12-12T04:53:11.368Z,96
2018-12-12T04:54:11.395Z,96
2018-12-12T04:55:11.355Z,96
2018-12-12T04:56:10.954Z,96
2018-12-12T04:57:10.894Z,95
2018-12-12T04:58:10.988Z,95
2018-12-12T04:59:11.147Z,95
2018-12-12T05:00:10.963Z,95
2018-12-12T05:01:11.433Z,95
2018-12-12T05:02:11.491Z,95
2018-12-12T05:03:10.961Z,95
2018-12-12T05:04:11.646Z,95
2018-12-12T05:05:11.383Z,95
2018-12-12T05:06:10.955Z,95
2018-12-12T05:07:11.187Z,95
2018-12-12T05:08:11.276Z,95
2018-12-12T05:09:10.958Z,95
2018-12-12T05:10:11.455Z,95
2018-12-12T05:11:11.124Z,95
2018-12-12T05:12:11.615Z,95
2018-12-12T05:13:11.169Z,95
2018-12-12T05:14:11.991Z,95
2018-12-12T05:15:11.201Z,95
2018-12-12T05:16:11.035Z,95
2018-12-12T05:17:11.202Z,95
2018-12-12T05:18:11.051Z,95
2018-12-12T05:19:11.074Z,95
2018-12-12T05:20:11.275Z,95
2018-12-12T05:21:10.964Z,95
2018-12-12T05:22:11.264Z,95
2018-12-12T05:23:11.192Z,95
2018-12-12T05:24:11.061Z,95
2018-12-12T05:25:11.472Z,95
2018-12-12T05:26:11.044Z,95
2018-12-12T05:27:10.977Z,95
2018-12-12T05:28:11.060Z,95
2018-12-12T05:29:11.031Z,95
2018-12-12T05:30:11.852Z,95
2018-12-12T05:31:11.473Z,95
2018-12-12T05:32:11.293Z,95
2018-12-12T05:33:11.017Z,95
2018-12-12T05:34:11.060Z,95
2018-12-12T05:35:11.034Z,95
2018-12-12T05:36:11.124Z,95
2018-12-12T05:37:11.044Z,95
2018-12-12T05:38:11.432Z,95
2018-12-12T05:39:11.473Z,95
2018-12-12T05:40:11.505Z,95
2018-12-12T05:41:11.038Z,95
2018-12-12T05:42:11.327Z,95
2018-12-12T05:43:11.248Z,95
2018-12-12T05:44:11.326Z,95
2018-12-12T05:45:11.457Z,95
2018-12-12T05:46:11.741Z,95
2018-12-12T05:47:11.053Z,95
2018-12-12T05:48:11.270Z,95
2018-12-12T05:49:11.053Z,95
2018-12-12T05:50:11.103Z,95
2018-12-12T05:51:11.103Z,95
2018-12-12T05:52:11.564Z,95
2018-12-12T05:53:11.391Z,95
2018-12-12T05:54:11.069Z,95
2018-12-12T05:55:11.251Z,95
2018-12-12T05:56:13.919Z,95
2018-12-12T05:57:11.274Z,95
2018-12-12T05:58:12.557Z,95
2018-12-12T05:59:11.500Z,95
2018-12-12T06:00:11.340Z,95
2018-12-12T06:01:11.490Z,95
2018-12-12T06:02:11.567Z,95
2018-12-12T06:03:11.503Z,95
2018-12-12T06:04:11.145Z,95
2018-12-12T06:05:11.108Z,95
2018-12-12T06:06:11.131Z,95
2018-12-12T06:07:11.575Z,95
2018-12-12T06:08:11.322Z,95
2018-12-12T06:09:11.317Z,95
2018-12-12T06:10:12.194Z,95
2018-12-12T06:11:11.162Z,95
2018-12-12T06:12:11.396Z,95
2018-12-12T06:13:11.105Z,95
2018-12-12T06:14:11.825Z,95
2018-12-12T06:15:11.518Z,95
2018-12-12T06:16:11.552Z,95
2018-12-12T06:17:11.321Z,95
2018-12-12T06:18:11.177Z,95
2018-12-12T06:19:11.131Z,95
2018-12-12T06:20:11.159Z,95
2018-12-12T06:21:11.098Z,95
2018-12-12T06:22:11.599Z,95
2018-12-12T06:23:11.199Z,95
2018-12-12T06:24:11.568Z,95
2018-12-12T06:25:11.640Z,95
2018-12-12T06:26:11.560Z,95
2018-12-12T06:27:11.214Z,95
2018-12-12T06:28:11.688Z,95
2018-12-12T06:29:11.744Z,95
2018-12-12T06:30:11.201Z,95
2018-12-12T06:31:11.171Z,95
2018-12-12T06:32:11.426Z,95
2018-12-12T06:33:11.171Z,95
2018-12-12T06:34:11.170Z,95
2018-12-12T06:35:11.293Z,95
2018-12-12T06:36:11.563Z,95
2018-12-12T06:37:11.609Z,95
2018-12-12T06:38:11.348Z,96
2018-12-12T06:39:11.348Z,96
2018-12-12T06:40:11.385Z,96
2018-12-12T06:41:11.307Z,96
2018-12-12T06:42:11.166Z,96
2018-12-12T06:43:11.621Z,96
2018-12-12T06:44:11.157Z,96
2018-12-12T06:45:11.676Z,96
2018-12-12T06:46:11.527Z,96
2018-12-12T06:47:11.320Z,96
2018-12-12T06:48:11.166Z,95
2018-12-12T06:49:11.161Z,95
2018-12-12T06:50:11.322Z,95
2018-12-12T06:51:11.596Z,96
2018-12-12T06:52:11.773Z,96
2018-12-12T06:53:11.618Z,96
2018-12-12T06:54:11.592Z,96
2018-12-12T06:55:11.355Z,96
2018-12-12T06:56:11.189Z,96
2018-12-12T06:57:11.251Z,96
2018-12-12T06:58:11.446Z,96
2018-12-12T06:59:11.238Z,96
2018-12-12T07:00:11.266Z,96
2018-12-12T07:01:11.165Z,96
2018-12-12T07:02:11.176Z,96
2018-12-12T07:03:11.212Z,96
2018-12-12T07:04:11.155Z,96
2018-12-12T07:05:11.625Z,96
2018-12-12T07:06:11.203Z,96
2018-12-12T07:07:11.950Z,96
2018-12-12T07:08:11.477Z,96
2018-12-12T07:09:11.630Z,96
2018-12-12T07:10:11.438Z,96
2018-12-12T07:11:11.190Z,96
2018-12-12T07:12:11.197Z,96
2018-12-12T07:13:11.235Z,96
2018-12-12T07:14:11.634Z,96
2018-12-12T07:15:11.179Z,96
2018-12-12T07:16:11.437Z,96
2018-12-12T07:17:11.631Z,96
2018-12-12T07:18:11.412Z,96
2018-12-12T07:19:11.201Z,96
2018-12-12T07:20:11.265Z,96
2018-12-12T07:21:11.164Z,96
2018-12-12T07:22:11.212Z,96
2018-12-12T07:23:11.478Z,96
2018-12-12T07:24:11.229Z,96
2018-12-12T07:25:11.220Z,96
2018-12-12T07:26:11.210Z,96
2018-12-12T07:27:11.214Z,96
2018-12-12T07:28:11.224Z,96
2018-12-12T07:29:11.640Z,96
2018-12-12T07:30:11.236Z,96
2018-12-12T07:31:11.442Z,96
2018-12-12T07:32:11.179Z,96
2018-12-12T07:33:11.204Z,96
2018-12-12T07:34:11.187Z,96
2018-12-12T07:35:11.483Z,96
2018-12-12T07:36:11.493Z,96
2018-12-12T07:37:11.258Z,96
2018-12-12T07:38:11.660Z,96
2018-12-12T07:39:17.720Z,96
2018-12-12T07:40:11.218Z,96
2018-12-12T07:41:11.657Z,96
2018-12-12T07:42:11.211Z,96
2018-12-12T07:43:11.241Z,96
2018-12-12T07:44:11.690Z,96
2018-12-12T07:45:11.270Z,96
2018-12-12T07:46:11.643Z,96
2018-12-12T07:47:12.110Z,96
2018-12-12T07:48:13.091Z,96
2018-12-12T07:49:12.119Z,96
2018-12-12T07:50:12.591Z,96
2018-12-12T07:51:12.269Z,96
2018-12-12T07:52:14.413Z,96
2018-12-12T07:53:13.743Z,96
2018-12-12T07:54:13.982Z,96
2018-12-12T07:55:13.128Z,96
2018-12-12T07:56:11.861Z,96
2018-12-12T07:57:12.369Z,96
2018-12-12T07:58:12.319Z,96
2018-12-12T07:59:11.274Z,96
2018-12-12T08:00:11.268Z,96
2018-12-12T08:01:11.532Z,96
2018-12-12T08:02:11.261Z,96
2018-12-12T08:03:11.344Z,96
2018-12-12T08:04:11.268Z,96
2018-12-12T08:05:11.555Z,96
2018-12-12T08:06:11.746Z,96
2018-12-12T08:07:11.273Z,96
2018-12-12T08:08:11.342Z,96
2018-12-12T08:09:11.783Z,96
2018-12-12T08:10:11.371Z,96
2018-12-12T08:11:11.460Z,96
2018-12-12T08:12:11.585Z,96
2018-12-12T08:13:11.390Z,96
2018-12-12T08:14:11.756Z,96
2018-12-12T08:15:11.372Z,96
2018-12-12T08:16:11.495Z,96
2018-12-12T08:17:21.533Z,96
2018-12-12T08:18:11.421Z,96
2018-12-12T08:19:11.725Z,96
2018-12-12T08:20:11.550Z,96
2018-12-12T08:21:11.754Z,96
2018-12-12T08:22:11.325Z,96
2018-12-12T08:23:11.442Z,96
2018-12-12T08:24:11.308Z,96
2018-12-12T08:25:11.398Z,96
2018-12-12T08:26:11.556Z,96
2018-12-12T08:27:12.341Z,96
2018-12-12T08:28:11.749Z,96
2018-12-12T08:29:11.294Z,96
2018-12-12T08:30:11.303Z,96
2018-12-12T08:31:11.558Z,96
2018-12-12T08:32:11.788Z,96
2018-12-12T08:33:11.635Z,96
2018-12-12T08:34:11.319Z,96
2018-12-12T08:35:11.546Z,96
2018-12-12T08:36:11.330Z,96
2018-12-12T08:37:11.944Z,96
2018-12-12T08:38:11.378Z,96
2018-12-12T08:39:11.805Z,96
2018-12-12T08:40:11.368Z,96
2018-12-12T08:41:12.055Z,96
2018-12-12T08:42:11.561Z,96
2018-12-12T08:43:11.317Z,96
2018-12-12T08:44:11.779Z,96
2018-12-12T08:45:12.036Z,96
2018-12-12T08:46:11.594Z,96
2018-12-12T08:47:11.391Z,96
2018-12-12T08:48:11.769Z,96
2018-12-12T08:49:11.574Z,96
2018-12-12T08:50:11.689Z,96
2018-12-12T08:51:11.410Z,96
2018-12-12T08:52:11.408Z,96
2018-12-12T08:53:11.867Z,96
2018-12-12T08:54:11.478Z,96
2018-12-12T08:55:17.333Z,96
2018-12-12T08:56:11.638Z,96
2018-12-12T08:57:11.659Z,96
2018-12-12T08:58:11.517Z,96
2018-12-12T08:59:11.373Z,96
2018-12-12T09:00:11.593Z,96
2018-12-12T09:01:11.390Z,96
2018-12-12T09:02:11.602Z,96
2018-12-12T09:03:17.301Z,96
2018-12-12T09:04:11.380Z,96
2018-12-12T09:05:11.844Z,96
2018-12-12T09:06:11.622Z,95
2018-12-12T09:07:11.388Z,95
2018-12-12T09:08:11.492Z,95
2018-12-12T09:09:11.416Z,95
2018-12-12T09:10:11.901Z,95
2018-12-12T09:11:11.445Z,95
2018-12-12T09:12:11.435Z,95
2018-12-12T09:13:11.849Z,95
2018-12-12T09:14:11.648Z,95
2018-12-12T09:15:11.469Z,95
2018-12-12T09:16:11.480Z,95
2018-12-12T09:17:12.214Z,95
2018-12-12T09:18:12.568Z,95
2018-12-12T09:19:11.689Z,95
2018-12-12T09:20:11.874Z,95
2018-12-12T09:21:11.494Z,95
2018-12-12T09:22:11.482Z,95
2018-12-12T09:23:11.623Z,95
2018-12-12T09:24:11.923Z,95
2018-12-12T09:25:11.640Z,95
2018-12-12T09:26:11.719Z,95
2018-12-12T09:27:11.535Z,95
2018-12-12T09:28:11.678Z,95
2018-12-12T09:29:11.746Z,95
2018-12-12T09:30:11.668Z,95
2018-12-12T09:31:11.508Z,95
2018-12-12T09:32:11.461Z,95
2018-12-12T09:33:11.948Z,95
2018-12-12T09:34:11.441Z,95
2018-12-12T09:35:11.440Z,95
2018-12-12T09:36:11.916Z,94
2018-12-12T09:37:11.406Z,94
2018-12-12T09:38:11.885Z,94
2018-12-12T09:39:11.909Z,94
2018-12-12T09:40:11.459Z,94
2018-12-12T09:41:11.527Z,94
2018-12-12T09:42:11.683Z,94
2018-12-12T09:43:11.615Z,94
2018-12-12T09:44:11.577Z,94
2018-12-12T09:45:11.549Z,94
2018-12-12T09:46:12.671Z,93
2018-12-12T09:47:11.674Z,93
2018-12-12T09:48:11.906Z,93
2018-12-12T09:49:11.569Z,93
2018-12-12T09:50:11.953Z,93
2018-12-12T09:51:11.955Z,93
2018-12-12T09:52:11.482Z,93
2018-12-12T09:53:11.547Z,93
2018-12-12T09:54:11.743Z,93
2018-12-12T09:55:11.916Z,93
2018-12-12T09:56:11.509Z,93
2018-12-12T09:57:12.057Z,92
2018-12-12T09:58:12.096Z,92
2018-12-12T09:59:11.948Z,92
2018-12-12T10:00:11.488Z,92
2018-12-12T10:01:11.937Z,92
2018-12-12T10:02:11.754Z,92
2018-12-12T10:03:11.541Z,92
2018-12-12T10:04:11.978Z,92
2018-12-12T10:05:11.713Z,92
2018-12-12T10:06:11.498Z,92
2018-12-12T10:07:11.731Z,91
2018-12-12T10:08:11.940Z,91
2018-12-12T10:09:11.522Z,91
2018-12-12T10:10:11.996Z,91
2018-12-12T10:11:11.685Z,91
2018-12-12T10:12:11.936Z,90
2018-12-12T10:13:11.536Z,90
2018-12-12T10:14:11.779Z,90
2018-12-12T10:15:11.541Z,90
2018-12-12T10:16:11.762Z,90
2018-12-12T10:17:11.808Z,90
2018-12-12T10:18:11.971Z,90
2018-12-12T10:19:11.547Z,90
2018-12-12T10:20:11.585Z,90
2018-12-12T10:21:11.584Z,90
2018-12-12T10:22:11.523Z,90
2018-12-12T10:23:11.645Z,90
2018-12-12T10:24:11.650Z,89
2018-12-12T10:25:11.741Z,89
2018-12-12T10:26:11.745Z,89
2018-12-12T10:27:11.540Z,89
2018-12-12T10:28:11.753Z,89
2018-12-12T10:29:12.026Z,89
2018-12-12T10:30:12.053Z,89
2018-12-12T10:31:11.673Z,89
2018-12-12T10:32:11.771Z,89
2018-12-12T10:33:11.674Z,89
2018-12-12T10:34:11.627Z,89
2018-12-12T10:35:11.729Z,89
2018-12-12T10:36:11.809Z,89
2018-12-12T10:37:11.606Z,89
2018-12-12T10:38:11.647Z,89
2018-12-12T10:39:11.589Z,89
2018-12-12T10:40:11.609Z,88
2018-12-12T10:41:11.578Z,88
2018-12-12T10:42:11.567Z,88
2018-12-12T10:43:11.682Z,88
2018-12-12T10:44:11.689Z,88
2018-12-12T10:45:11.592Z,87
2018-12-12T10:46:11.823Z,87
2018-12-12T10:47:13.176Z,87
2018-12-12T10:48:11.596Z,87
2018-12-12T10:49:11.556Z,87
2018-12-12T10:50:11.578Z,87
2018-12-12T10:51:12.026Z,87
2018-12-12T10:52:12.031Z,87
2018-12-12T10:53:12.089Z,87
2018-12-12T10:54:11.793Z,87
2018-12-12T10:55:11.747Z,87
2018-12-12T10:56:11.628Z,87
2018-12-12T10:57:11.635Z,87
2018-12-12T10:58:11.651Z,86
2018-12-12T10:59:11.632Z,86
2018-12-12T11:00:12.654Z,86
2018-12-12T11:01:11.766Z,86
2018-12-12T11:02:11.852Z,86
2018-12-12T11:03:12.046Z,86
2018-12-12T11:04:11.598Z,86
2018-12-12T11:05:11.600Z,86
2018-12-12T11:06:11.677Z,86
2018-12-12T11:07:12.112Z,86
2018-12-12T11:08:11.694Z,86
2018-12-12T11:09:11.618Z,86
2018-12-12T11:10:11.673Z,87
2018-12-12T11:11:12.034Z,87
2018-12-12T11:12:11.876Z,87
2018-12-12T11:13:11.605Z,86
2018-12-12T11:14:11.628Z,86
2018-12-12T11:15:12.058Z,86
2018-12-12T11:16:11.614Z,86
2018-12-12T11:17:11.630Z,86
2018-12-12T11:18:11.623Z,87
2018-12-12T11:19:11.641Z,87
2018-12-12T11:20:11.701Z,87
2018-12-12T11:21:11.665Z,87
2018-12-12T11:22:11.808Z,87
2018-12-12T11:23:11.705Z,87
2018-12-12T11:24:11.850Z,87
2018-12-12T11:25:11.677Z,86
2018-12-12T11:26:12.097Z,86
2018-12-12T11:27:11.822Z,86
2018-12-12T11:28:11.649Z,86
2018-12-12T11:29:11.719Z,86
2018-12-12T11:30:11.817Z,86
2018-12-12T11:31:12.102Z,86
2018-12-12T11:32:11.641Z,86
2018-12-12T11:33:11.653Z,86
2018-12-12T11:34:12.149Z,86
2018-12-12T11:35:11.897Z,86
2018-12-12T11:36:12.140Z,87
2018-12-12T11:37:11.653Z,87
2018-12-12T11:38:11.745Z,87
2018-12-12T11:39:11.657Z,87
2018-12-12T11:40:11.887Z,87
2018-12-12T11:41:11.732Z,87
2018-12-12T11:42:11.897Z,87
2018-12-12T11:43:12.105Z,87
2018-12-12T11:44:11.739Z,87
2018-12-12T11:45:11.640Z,87
2018-12-12T11:46:11.747Z,87
2018-12-12T11:47:11.695Z,87
2018-12-12T11:48:13.309Z,87
2018-12-12T11:49:11.670Z,87
2018-12-12T11:50:12.128Z,87
2018-12-12T11:51:11.672Z,87
2018-12-12T11:52:12.161Z,87
2018-12-12T11:53:11.742Z,88
2018-12-12T11:54:11.670Z,88
2018-12-12T11:55:11.762Z,88
2018-12-12T11:56:12.123Z,88
2018-12-12T11:57:11.691Z,88
2018-12-12T11:58:12.152Z,88
2018-12-12T11:59:11.884Z,88
2018-12-12T12:00:11.751Z,88
2018-12-12T12:01:11.903Z,88
2018-12-12T12:02:11.754Z,88
2018-12-12T12:03:11.672Z,88
2018-12-12T12:04:12.150Z,88
2018-12-12T12:05:12.169Z,88
2018-12-12T12:06:11.846Z,88
2018-12-12T12:07:11.724Z,88
2018-12-12T12:08:12.001Z,88
2018-12-12T12:09:11.651Z,88
2018-12-12T12:10:11.847Z,88
2018-12-12T12:11:12.209Z,88
2018-12-12T12:12:11.957Z,88
2018-12-12T12:13:13.298Z,88
2018-12-12T12:14:11.721Z,88
2018-12-12T12:15:11.908Z,88
2018-12-12T12:16:11.747Z,88
2018-12-12T12:17:11.995Z,88
2018-12-12T12:18:11.941Z,88
2018-12-12T12:19:12.023Z,88
2018-12-12T12:20:12.172Z,88
2018-12-12T12:21:17.632Z,88
2018-12-12T12:22:17.838Z,88
2018-12-12T12:23:21.096Z,88
2018-12-12T12:24:28.509Z,88
2018-12-12T12:25:30.646Z,88
2018-12-12T12:26:33.338Z,88
2018-12-12T12:27:38.484Z,88
2018-12-12T12:28:11.994Z,88
2018-12-12T12:29:32.146Z,87
2018-12-12T12:30:12.047Z,87
2018-12-12T12:31:11.892Z,87
2018-12-12T12:32:11.818Z,86
2018-12-12T12:33:11.773Z,86
2018-12-12T12:34:11.723Z,86
2018-12-12T12:35:12.244Z,86
2018-12-12T12:36:11.981Z,86
2018-12-12T12:37:11.819Z,86
2018-12-12T12:38:12.043Z,86
2018-12-12T12:39:11.807Z,86
2018-12-12T12:40:11.771Z,86
2018-12-12T12:41:11.968Z,86
2018-12-12T12:42:11.993Z,86
2018-12-12T12:43:12.007Z,86
2018-12-12T12:44:11.788Z,86
2018-12-12T12:45:11.956Z,86
2018-12-12T12:46:12.222Z,86
2018-12-12T12:47:11.784Z,85
2018-12-12T12:48:11.816Z,85
2018-12-12T12:49:13.421Z,85
2018-12-12T12:50:11.830Z,85
2018-12-12T12:51:12.202Z,85
2018-12-12T12:52:11.843Z,85
2018-12-12T12:53:12.046Z,85
2018-12-12T12:54:11.780Z,85
2018-12-12T12:55:11.997Z,85
2018-12-12T12:56:11.756Z,85
2018-12-12T12:57:11.970Z,85
2018-12-12T12:58:11.810Z,85
2018-12-12T12:59:11.764Z,85
2018-12-12T13:00:11.782Z,85
2018-12-12T13:01:12.350Z,85
2018-12-12T13:02:11.856Z,85
2018-12-12T13:03:11.858Z,85
2018-12-12T13:04:11.873Z,85
2018-12-12T13:05:11.827Z,85
2018-12-12T13:06:11.863Z,85
2018-12-12T13:07:12.045Z,85
2018-12-12T13:08:12.151Z,85
2018-12-12T13:09:12.305Z,85
2018-12-12T13:10:11.909Z,84
2018-12-12T13:11:14.681Z,84
2018-12-12T13:12:12.450Z,84
2018-12-12T13:13:12.388Z,84
2018-12-12T13:14:12.435Z,84
2018-12-12T13:15:12.334Z,84
2018-12-12T13:16:12.553Z,84
2018-12-12T13:17:12.420Z,84
2018-12-12T13:18:19.815Z,84
2018-12-12T13:19:14.670Z,84
2018-12-12T13:20:16.920Z,84
2018-12-12T13:21:13.733Z,84
2018-12-12T13:22:12.345Z,84
2018-12-12T13:23:11.922Z,84
2018-12-12T13:24:12.335Z,84
2018-12-12T13:25:11.868Z,84
2018-12-12T13:26:12.035Z,84
2018-12-12T13:27:12.022Z,85
2018-12-12T13:28:12.312Z,85
2018-12-12T13:29:12.287Z,85
2018-12-12T13:30:12.351Z,85
2018-12-12T13:31:12.314Z,85
2018-12-12T13:32:11.821Z,85
2018-12-12T13:33:11.874Z,86
2018-12-12T13:34:16.146Z,86
2018-12-12T13:35:12.422Z,86
2018-12-12T13:36:11.882Z,86
2018-12-12T13:37:11.855Z,86
2018-12-12T13:38:13.372Z,86
2018-12-12T13:39:11.952Z,86
2018-12-12T13:40:11.972Z,86
2018-12-12T13:41:12.303Z,86
2018-12-12T13:42:12.316Z,86
2018-12-12T13:43:12.156Z,87
2018-12-12T13:44:12.749Z,87
2018-12-12T13:45:12.327Z,87
2018-12-12T13:46:12.101Z,87
2018-12-12T13:47:17.143Z,87
2018-12-12T13:48:12.821Z,86
2018-12-12T13:49:11.947Z,86
2018-12-12T13:50:13.848Z,85
2018-12-12T13:51:12.368Z,85
2018-12-12T13:52:12.127Z,85
2018-12-12T13:53:12.767Z,85
2018-12-12T13:54:12.184Z,85
2018-12-12T13:55:12.304Z,85
2018-12-12T13:56:12.146Z,85
2018-12-12T13:57:12.341Z,85
2018-12-12T13:58:11.890Z,85
2018-12-12T13:59:11.964Z,85
2018-12-12T14:00:12.381Z,85
2018-12-12T14:01:12.321Z,85
2018-12-12T14:02:12.001Z,85
2018-12-12T14:03:12.196Z,85
2018-12-12T14:04:12.027Z,85
2018-12-12T14:05:12.377Z,85
2018-12-12T14:06:12.372Z,85
2018-12-12T14:07:11.946Z,85
2018-12-12T14:08:12.204Z,85
2018-12-12T14:09:12.377Z,85
2018-12-12T14:10:12.339Z,85
2018-12-12T14:11:11.996Z,85
2018-12-12T14:12:17.156Z,85
2018-12-12T14:13:12.175Z,85
2018-12-12T14:14:11.955Z,85
2018-12-12T14:15:12.189Z,85